Cameron, WI (54822)

7:28 PM CDT en Julio 23, 2014 (GMT -0500)
Rice Lake Regional-Carl's (KRPD) Alt 1106 ft | 45.42 °N, 91.78 °W | Change Station

Current weather conditions updated 13 minutes ago

Muy nublado
Muy nublado
75 ° F
Sensación térmica 75 ° F
N
9
Viento Variable Viento desde NNE

Mañana se prevé una temperatura muy similar a la de hoy.

Hoy
Alta -- | Baja -- ° F
--% Posibilidad de precipitaciones
Ayer
Alta -- | Baja -- ° F
Precip. -- pul
5:41 AM 8:44 PM
Creciente menguante, 8% visible
Presión 30.19 pul
Visibilidad 10.0 Millas
Nubes Despejado
Punto de rocío 50 ° F
Humedad 42%
Precipitaciones 0.00 pul
Espesor de la nieve No disponible.
UV 1 de una escala de 12
Polen 6.20 de una escala de 12
Calidad del aire No disponible.
Flu Activity No disponible.
METAR KRPD 240015Z AUTO 02008KT 10SM CLR 24/10 A3019 RMK AO2 T02380101

More Conditions Fewer Conditions

Presión 30.19 pul
Visibilidad 10.0 Millas
Nubes Despejado
Punto de rocío 50 ° F
Humedad 42%
Precipitaciones 0.00 pul
Espesor de la nieve No disponible.
UV 1 de una escala de 12
Polen 6.20 de una escala de 12
Calidad del aire No disponible.
Flu Activity No disponible.
METAR KRPD 240015Z AUTO 02008KT 10SM CLR 24/10 A3019 RMK AO2 T02380101

More Conditions Fewer Conditions

10-Day Weather Forecast

Almanac

Astronomía

Jul. 23, 2014 Salida Puesta
Hora real 5:41 AM CDT 8:44 PM CDT
Crepúsculo civil 5:05 AM CDT 9:20 PM CDT
Crepúsculo náutico 4:20 AM CDT 10:05 PM CDT
Crepúsculo astronómico 3:25 AM CDT 10:59 PM CDT
Luna 3:01 AM CDT (7/23) 6:12 PM CDT (7/23)
Horas de luz 16h 14m
Horas de luz
15h 03m
Tomorrow will be 2m 7s shorter.
Creciente menguante, 8% of the Moon is Illuminated
Hoy
Creciente menguante
Jul 26
Nueva
Ago 3
Cuarto creciente
Ago 10
Luna llena
Ago 17
Cuarto menguante

Extremos de hoy

Máximos del estado Bajos del estado

Community

WunderPhotos

Upload Photos

1,736,827 ¡fotos cargadas!

Nearby

Grosos de nieve

Estación Profundido Altura
No tenemos constancia de nieve nueva.

Actividad de terremotos

Ciudad Distance Mag. Tiempo y dato
No hay informes recientes de la actividad sísmica.
Magnitud mínima muestra es 2,5.

Temperaturas de aguas costeras

Lugar Temperatura
Sin partes meteorológicos de las estaciones

Estaciones meteorológicas cercanas

Ubicación de la estación Temp. Índice de calor Punto de rocío Humedad Viento Precip. Alt Actualizado Tipo
WIDOT Chetek - USH 53 @ CTH I, Chetek, WI 78 ° F 78 ° F 49 ° F 36% SE  a  0 mph 0.00 pul / hr 1050 ft 6:10 PM CDT MADIS
Chris and Kristin Olson, Barron, WI 75.6 ° F 78 ° F 51 ° F 42% NNE  a  4.2 mph 0.00 pul / hr 1122 ft 7:28 PM CDT Rapid Fire
Shell Lake, Shell Lake, WI 76.5 ° F 78 ° F 56 ° F 50% Norte  a  0.0 mph - / hr 1230 ft 7:28 PM CDT Normal
Sand Lake, WI, New Auburn, WI 72.0 ° F 75 ° F 33 ° F 24% NNE  a  2.2 mph 0.00 pul / hr 0 ft 7:28 PM CDT Rapid Fire

Show More Stations Show Fewer Stations